Time;durP1;ratioP1;P1;durP2;ratioP2;P2;SDS_P1;SDS_P2;PMS_P1;PMS_P2;Temp;Humidity;BMP_temperature;BMP_pressure;BME280_temperature;BME280_humidity;BME280_pressure;Samples;Min_cycle;Max_cycle;Signal;HPM_P1;HPM_P2
2021/12/18 00:02:07;;;;;;;7.97;3.28;;;;;;;5.60;100.00;103608.09;4925812;29;20043;-81
2021/12/18 00:04:41;;;;;;;8.77;3.65;;;;;;;6.84;100.00;103814.50;4957631;29;20047;-81
2021/12/18 00:07:11;;;;;;;7.70;3.28;;;;;;;6.36;100.00;103735.91;5000498;23;20099;-81
2021/12/18 00:09:46;;;;;;;8.63;3.53;;;;;;;7.12;100.00;103819.94;4956760;29;20160;-82
2021/12/18 00:12:17;;;;;;;7.28;2.85;;;;;;;6.37;100.00;103733.25;4957538;29;20043;-82
2021/12/18 00:14:47;;;;;;;8.13;3.35;;;;;;;5.53;100.00;103578.53;4966761;23;20044;-82
2021/12/18 00:17:25;;;;;;;9.98;3.95;;;;;;;6.99;100.00;103815.88;4971515;23;20024;-82
2021/12/18 00:19:54;;;;;;;8.18;3.72;;;;;;;6.23;100.00;103677.59;4955792;29;20051;-82
2021/12/18 00:22:29;;;;;;;9.73;3.85;;;;;;;5.42;100.00;103631.16;4956805;29;20047;-82
2021/12/18 00:24:56;;;;;;;8.85;3.58;;;;;;;6.77;100.00;103808.50;4957981;29;20072;-81
2021/12/18 00:27:29;;;;;;;10.20;4.03;;;;;;;6.02;100.00;103674.53;4964428;23;20044;-80
2021/12/18 00:30:08;;;;;;;8.68;3.70;;;;;;;7.04;100.00;103800.88;4945024;29;20028;-81
2021/12/18 00:32:37;;;;;;;8.20;3.10;;;;;;;6.92;100.00;103788.88;4929331;29;20093;-81
2021/12/18 00:35:10;;;;;;;10.00;3.85;;;;;;;6.26;100.00;103733.47;4958326;29;20118;-82
2021/12/18 00:37:36;;;;;;;8.48;3.50;;;;;;;6.06;100.00;103717.28;4958020;29;20034;-82
2021/12/18 00:40:16;;;;;;;9.50;3.50;;;;;;;6.77;100.00;103789.22;4974283;23;20083;-82
2021/12/18 00:43:23;;;;;;;7.63;3.30;;;;;;;6.88;100.00;103798.63;4942108;29;20040;-82
2021/12/18 00:45:39;;;;;;;8.98;3.40;;;;;;;6.05;100.00;103671.84;4957270;29;20023;-82
2021/12/18 00:51:08;;;;;;;8.73;3.20;;;;;;;6.89;100.00;103792.44;5118896;23;20051;-82
2021/12/18 00:53:59;;;;;;;8.88;3.60;;;;;;;6.62;100.00;103730.06;4952183;23;20298;-82
2021/12/18 00:56:30;;;;;;;8.50;3.50;;;;;;;6.16;100.00;103676.88;4922064;29;20070;-81
2021/12/18 00:59:01;;;;;;;10.10;3.83;;;;;;;7.05;100.00;103798.22;4908734;29;20207;-81
2021/12/18 01:01:28;;;;;;;8.55;3.50;;;;;;;7.05;100.00;103786.84;4923999;29;20063;-82
2021/12/18 01:04:08;;;;;;;7.18;2.60;;;;;;;6.11;100.00;103646.38;4909289;29;20025;-82
2021/12/18 01:06:36;;;;;;;7.30;2.83;;;;;;;5.15;100.00;103601.13;4911164;29;20083;-82
2021/12/18 01:09:04;;;;;;;8.30;2.92;;;;;;;6.49;100.00;103797.75;4907981;29;20032;-81
2021/12/18 01:11:47;;;;;;;9.10;3.28;;;;;;;6.21;100.00;103735.34;4908794;29;20036;-82
2021/12/18 01:23:03;;;;;;;7.40;2.70;;;;;;;5.97;100.00;103720.13;4903963;29;20032;-80
2021/12/18 01:25:33;;;;;;;8.18;3.00;;;;;;;6.66;100.00;103790.34;4948263;24;20051;-83
2021/12/18 01:28:01;;;;;;;7.00;2.65;;;;;;;5.29;100.00;103561.59;4911118;29;20047;-81
2021/12/18 01:30:32;;;;;;;6.05;2.58;;;;;;;6.56;100.00;103809.81;4924360;29;20051;-83
2021/12/18 01:33:09;;;;;;;6.85;2.45;;;;;;;6.25;100.00;103744.88;4947061;23;20047;-82
2021/12/18 01:35:59;;;;;;;6.65;2.35;;;;;;;6.58;100.00;103799.31;4939846;29;20048;-82
2021/12/18 01:38:29;;;;;;;7.70;2.78;;;;;;;6.58;100.00;103776.53;4941039;29;20071;-82
2021/12/18 01:40:59;;;;;;;6.78;2.60;;;;;;;6.08;100.00;103715.50;4930288;23;20071;-82
2021/12/18 01:46:43;;;;;;;8.85;3.17;;;;;;;5.39;100.00;103661.81;4953434;29;20079;-81
2021/12/18 01:52:17;;;;;;;9.32;3.70;;;;;;;5.95;100.00;103724.53;4968803;29;20044;-80
2021/12/18 01:54:46;;;;;;;9.00;3.80;;;;;;;6.68;100.00;103778.06;4940661;29;20036;-81
2021/12/18 01:57:15;;;;;;;9.02;3.50;;;;;;;6.36;100.00;103768.28;4956543;29;20383;-80
2021/12/18 01:59:47;;;;;;;8.80;3.60;;;;;;;6.03;100.00;103694.63;4956371;29;20024;-81
2021/12/18 02:02:17;;;;;;;9.50;3.50;;;;;;;6.45;100.00;103757.59;4957272;29;20036;-81
2021/12/18 02:04:43;;;;;;;9.65;3.40;;;;;;;6.31;100.00;103769.25;4939324;29;20095;-81
2021/12/18 02:07:14;;;;;;;8.73;3.80;;;;;;;6.51;100.00;103790.69;4982268;23;20064;-81
2021/12/18 02:12:21;;;;;;;9.48;3.67;;;;;;;6.25;100.00;103741.41;4917113;29;20096;-81
2021/12/18 02:20:41;;;;;;;9.27;3.50;;;;;;;5.73;100.00;103680.38;4968319;23;20056;-81
2021/12/18 02:23:18;;;;;;;9.88;3.72;;;;;;;5.55;100.00;103612.59;4939988;29;20050;-82
2021/12/18 02:25:46;;;;;;;10.60;4.15;;;;;;;5.92;100.00;103669.50;4956297;29;20060;-82
2021/12/18 02:28:31;;;;;;;11.30;3.42;;;;;;;6.64;100.00;103783.41;4936302;29;20032;-81
2021/12/18 02:30:59;;;;;;;8.98;3.47;;;;;;;6.36;100.00;103788.41;4920480;29;20048;-81
2021/12/18 02:33:26;;;;;;;8.15;3.13;;;;;;;6.37;100.00;103762.13;4921958;29;20024;-81
2021/12/18 02:35:57;;;;;;;8.95;3.45;;;;;;;5.85;100.00;103714.19;4934193;29;20040;-81
2021/12/18 02:38:57;;;;;;;8.07;3.13;;;;;;;5.84;100.00;103681.00;4913465;29;20043;-81
2021/12/18 02:41:40;;;;;;;10.30;3.55;;;;;;;6.61;100.00;103794.84;4936408;29;20039;-80
2021/12/18 02:44:11;;;;;;;11.52;3.47;;;;;;;5.90;100.00;103698.38;4939532;29;20071;-82
2021/12/18 02:46:42;;;;;;;8.13;3.33;;;;;;;5.81;100.00;103688.06;4937523;29;20012;-81
2021/12/18 02:49:13;;;;;;;10.80;3.55;;;;;;;5.30;100.00;103664.63;4932563;29;20067;-80
2021/12/18 02:51:40;;;;;;;9.05;3.33;;;;;;;6.42;100.00;103790.91;4935028;29;20063;-79
2021/12/18 02:54:06;;;;;;;8.98;3.38;;;;;;;6.14;100.00;103756.50;4932051;29;20428;-79
2021/12/18 02:56:33;;;;;;;8.88;3.35;;;;;;;6.17;100.00;103752.03;4908014;29;20505;-79
2021/12/18 02:59:06;;;;;;;9.73;3.72;;;;;;;5.85;100.00;103666.13;4944491;29;20039;-79
2021/12/18 03:01:38;;;;;;;9.90;3.58;;;;;;;5.67;100.00;103667.38;4955055;29;20043;-79
2021/12/18 03:04:21;;;;;;;8.77;3.15;;;;;;;4.93;100.00;103568.41;4954638;29;20054;-79
2021/12/18 03:06:59;;;;;;;9.77;3.33;;;;;;;5.99;100.00;103705.22;4947866;29;20031;-79
2021/12/18 03:25:43;;;;;;;12.80;3.75;;;;;;;5.45;100.00;103693.16;4920230;29;20028;-79
2021/12/18 03:28:09;;;;;;;11.13;3.53;;;;;;;5.89;100.00;103788.44;4934198;29;20024;-79
2021/12/18 03:30:37;;;;;;;11.27;3.08;;;;;;;5.00;100.00;103618.00;4931380;29;20040;-79
2021/12/18 03:33:03;;;;;;;9.25;2.95;;;;;;;4.82;100.00;103553.75;4930072;29;20047;-79
2021/12/18 03:35:32;;;;;;;7.88;2.78;;;;;;;5.45;100.00;103638.13;4910002;29;20043;-79
2021/12/18 03:37:59;;;;;;;9.60;3.22;;;;;;;5.22;100.00;103683.09;4923060;29;20024;-78
2021/12/18 03:40:26;;;;;;;9.25;2.85;;;;;;;5.69;100.00;103773.09;4925111;29;20418;-79
2021/12/18 03:42:54;;;;;;;8.80;3.00;;;;;;;5.26;100.00;103704.88;4928018;29;20040;-78
2021/12/18 03:45:21;;;;;;;9.05;2.92;;;;;;;5.14;100.00;103670.13;4923145;29;20452;-78
2021/12/18 03:47:50;;;;;;;9.43;2.90;;;;;;;5.79;100.00;103755.41;4923131;29;20017;-78
2021/12/18 03:50:20;;;;;;;11.15;3.63;;;;;;;5.38;100.00;103762.28;4944512;29;20044;-79
2021/12/18 03:52:50;;;;;;;8.52;2.63;;;;;;;5.69;100.00;103775.72;5327693;23;20068;-78
2021/12/18 03:55:16;;;;;;;7.50;2.30;;;;;;;5.44;100.00;103749.94;4904458;29;20124;-78
2021/12/18 03:57:46;;;;;;;6.80;2.00;;;;;;;5.42;100.00;103746.47;4883498;29;20032;-78
2021/12/18 04:00:14;;;;;;;6.75;2.20;;;;;;;5.57;100.00;103753.22;4897241;29;20025;-78
2021/12/18 04:02:43;;;;;;;11.25;2.47;;;;;;;5.76;100.00;103758.97;4882618;29;20036;-78
2021/12/18 04:05:11;;;;;;;10.45;3.05;;;;;;;5.32;100.00;103754.56;4883760;29;20025;-78
2021/12/18 04:07:42;;;;;;;10.05;3.03;;;;;;;4.81;100.00;103722.22;4897795;29;20033;-78
2021/12/18 04:10:13;;;;;;;9.07;2.88;;;;;;;4.93;100.00;103747.31;4900939;29;20045;-78
2021/12/18 04:12:39;;;;;;;8.98;2.50;;;;;;;5.28;100.00;103763.34;4895392;29;20120;-77
2021/12/18 04:15:05;;;;;;;7.68;2.03;;;;;;;5.23;100.00;103759.03;4910431;29;20029;-78
2021/12/18 04:17:32;;;;;;;7.07;1.55;;;;;;;5.41;100.00;103742.13;4910331;29;20044;-79
2021/12/18 04:19:57;;;;;;;7.28;1.67;;;;;;;5.13;100.00;103720.81;4908257;29;20128;-78
2021/12/18 04:22:23;;;;;;;7.10;1.90;;;;;;;5.33;100.00;103777.22;4892556;29;20032;-77
2021/12/18 04:24:49;;;;;;;8.55;2.63;;;;;;;5.05;100.00;103713.97;4891886;29;20040;-78
2021/12/18 04:27:15;;;;;;;9.40;2.50;;;;;;;5.34;100.00;103731.81;4887882;29;20063;-78
2021/12/18 04:29:41;;;;;;;7.03;2.10;;;;;;;4.86;100.00;103698.56;4884392;29;20029;-77
2021/12/18 04:32:06;;;;;;;7.40;1.85;;;;;;;5.29;100.00;103746.72;4881821;29;20180;-78
2021/12/18 04:34:32;;;;;;;6.57;1.73;;;;;;;5.12;100.00;103719.06;4900059;29;20037;-77
2021/12/18 04:37:01;;;;;;;6.10;1.58;;;;;;;5.20;100.00;103726.78;4904156;29;20043;-77
2021/12/18 04:39:27;;;;;;;6.43;1.70;;;;;;;5.00;100.00;103703.56;4904262;29;20056;-77
2021/12/18 04:42:01;;;;;;;9.98;2.97;;;;;;;5.03;100.00;103763.75;4883690;29;20032;-77
2021/12/18 04:44:27;;;;;;;11.20;3.55;;;;;;;5.27;100.00;103775.59;4882148;29;20037;-77
2021/12/18 04:46:54;;;;;;;11.02;3.65;;;;;;;5.18;100.00;103770.50;4880440;29;20032;-78
2021/12/18 04:49:20;;;;;;;14.82;3.63;;;;;;;5.10;100.00;103751.41;4896289;29;20449;-78
2021/12/18 04:51:47;;;;;;;13.48;3.65;;;;;;;5.12;100.00;103737.41;4913204;29;20060;-78
2021/12/18 04:54:13;;;;;;;15.68;3.38;;;;;;;4.91;100.00;103706.34;4881015;29;20108;-77
2021/12/18 04:56:39;;;;;;;12.38;3.30;;;;;;;4.97;100.00;103790.91;4896023;29;20073;-77
2021/12/18 04:59:05;;;;;;;9.90;3.20;;;;;;;5.21;100.00;103786.16;4895323;29;20035;-78
2021/12/18 05:01:40;;;;;;;11.63;3.35;;;;;;;5.14;100.00;103743.50;4906990;29;20040;-79
2021/12/18 05:04:10;;;;;;;13.95;3.60;;;;;;;5.15;100.00;103773.16;4902117;29;20024;-79
2021/12/18 05:06:40;;;;;;;12.80;3.97;;;;;;;4.60;100.00;103736.47;4890327;29;20028;-78
2021/12/18 05:11:32;;;;;;;9.37;2.77;;;;;;;4.57;100.00;103783.63;4952423;23;20076;-80
2021/12/18 05:13:58;;;;;;;9.55;2.28;;;;;;;4.49;100.00;103717.44;4939690;29;20692;-79
2021/12/18 05:16:24;;;;;;;7.88;2.00;;;;;;;4.50;100.00;103700.00;4938477;29;20035;-78
2021/12/18 05:18:50;;;;;;;6.90;1.92;;;;;;;4.41;100.00;103706.25;4923043;29;20039;-78
2021/12/18 05:21:17;;;;;;;5.47;1.58;;;;;;;5.09;100.00;103782.00;4939898;29;20028;-79
2021/12/18 05:23:45;;;;;;;5.95;1.50;;;;;;;4.65;100.00;103746.00;4938230;29;20506;-79
2021/12/18 05:26:11;;;;;;;3.70;1.27;;;;;;;4.82;100.00;103781.53;4938249;29;20031;-78
2021/12/18 05:28:37;;;;;;;6.78;1.45;;;;;;;4.40;100.00;103717.56;4936505;29;20501;-78
2021/12/18 05:31:04;;;;;;;9.27;1.42;;;;;;;4.55;100.00;103717.34;4937349;29;20130;-78
2021/12/18 05:33:30;;;;;;;8.95;1.30;;;;;;;4.98;100.00;103760.34;4938914;29;20024;-79
2021/12/18 05:35:56;;;;;;;6.13;1.50;;;;;;;4.78;100.00;103730.09;4938558;29;20031;-79
2021/12/18 05:38:25;;;;;;;6.85;1.40;;;;;;;4.62;100.00;103794.03;4939064;29;20063;-78
2021/12/18 05:40:51;;;;;;;5.93;1.33;;;;;;;4.84;100.00;103744.84;4920350;29;20035;-78
2021/12/18 05:43:17;;;;;;;7.30;1.50;;;;;;;5.00;100.00;103779.53;4936123;29;20115;-77
2021/12/18 05:45:42;;;;;;;8.57;1.80;;;;;;;4.81;100.00;103722.22;4936889;29;20031;-77
2021/12/18 05:48:09;;;;;;;6.82;1.95;;;;;;;5.10;100.00;103767.13;4937187;29;20430;-77
2021/12/18 05:50:47;;;;;;;8.25;1.83;;;;;;;5.27;100.00;103761.59;4935439;29;20067;-78
2021/12/18 05:53:14;;;;;;;10.18;2.20;;;;;;;5.01;100.00;103786.47;4951412;29;20088;-77
2021/12/18 05:55:42;;;;;;;6.90;2.08;;;;;;;5.23;100.00;103776.53;4925104;29;20128;-78
2021/12/18 05:58:08;;;;;;;8.60;2.15;;;;;;;5.21;100.00;103741.63;4936670;29;20480;-74
2021/12/18 06:00:39;;;;;;;8.65;2.10;;;;;;;5.24;100.00;103733.69;4920113;29;20023;-75
2021/12/18 06:03:08;;;;;;;7.40;2.17;;;;;;;5.13;100.00;103733.91;4935767;29;20055;-77
2021/12/18 06:05:37;;;;;;;6.03;1.70;;;;;;;4.60;100.00;103715.53;4934645;29;20501;-76
2021/12/18 06:08:05;;;;;;;6.80;1.83;;;;;;;5.07;100.00;103768.06;4923018;29;20056;-75
2021/12/18 06:10:33;;;;;;;7.60;1.88;;;;;;;4.42;100.00;103755.06;4918948;29;20040;-76
2021/12/18 06:13:02;;;;;;;6.18;1.83;;;;;;;4.86;100.00;103771.00;4918131;29;20040;-77
2021/12/18 06:15:28;;;;;;;5.65;1.52;;;;;;;4.37;100.00;103785.66;4916419;29;20099;-76
2021/12/18 06:17:55;;;;;;;7.18;1.60;;;;;;;4.18;100.00;103737.94;4935973;29;20036;-76
2021/12/18 06:20:41;;;;;;;6.07;1.90;;;;;;;4.90;100.00;103781.41;4941218;29;20030;-77
2021/12/18 06:23:07;;;;;;;5.50;1.65;;;;;;;4.49;100.00;103748.84;4943767;29;20024;-77
2021/12/18 06:25:32;;;;;;;6.78;1.70;;;;;;;4.08;100.00;103739.78;4926859;29;20027;-77
2021/12/18 06:27:58;;;;;;;7.53;2.00;;;;;;;4.17;100.00;103746.66;4946913;29;20044;-77
2021/12/18 06:30:24;;;;;;;6.05;1.67;;;;;;;4.08;100.00;103742.41;4962141;29;20031;-77
2021/12/18 06:32:49;;;;;;;5.57;1.80;;;;;;;4.24;100.00;103743.06;4948597;29;20023;-76
2021/12/18 06:35:15;;;;;;;6.28;1.90;;;;;;;4.23;100.00;103738.75;4945291;29;20419;-76
2021/12/18 06:37:40;;;;;;;5.97;1.83;;;;;;;4.47;100.00;103758.47;4944825;29;20095;-77
2021/12/18 06:40:07;;;;;;;6.93;2.08;;;;;;;4.63;100.00;103734.69;4943877;29;20083;-77
2021/12/18 06:42:43;;;;;;;5.83;1.87;;;;;;;4.62;100.00;103732.97;4941480;29;20105;-77
2021/12/18 06:45:10;;;;;;;6.35;1.60;;;;;;;4.72;100.00;103743.25;4941568;29;20179;-76
2021/12/18 06:47:36;;;;;;;5.88;1.70;;;;;;;4.70;100.00;103773.88;4939068;29;20063;-77
2021/12/18 06:50:04;;;;;;;7.07;1.85;;;;;;;4.74;100.00;103787.75;4939314;29;20027;-76
2021/12/18 06:52:29;;;;;;;6.18;1.60;;;;;;;4.44;100.00;103732.34;4939249;29;20083;-76
2021/12/18 06:54:56;;;;;;;8.30;1.92;;;;;;;4.21;100.00;103729.19;4955121;29;20023;-77
2021/12/18 06:57:22;;;;;;;12.18;2.30;;;;;;;3.95;100.00;103753.91;4954377;29;20031;-77
2021/12/18 06:59:49;;;;;;;7.32;2.03;;;;;;;4.05;100.00;103731.13;4939317;29;20116;-77
2021/12/18 07:02:15;;;;;;;7.90;2.17;;;;;;;4.37;100.00;103723.72;4939005;29;20080;-75
2021/12/18 07:04:42;;;;;;;8.15;2.25;;;;;;;4.12;100.00;103722.31;4938655;29;20055;-78
2021/12/18 07:07:07;;;;;;;7.07;1.98;;;;;;;4.14;100.00;103731.88;4922259;29;20458;-76
2021/12/18 07:09:33;;;;;;;6.10;2.03;;;;;;;4.14;100.00;103751.94;4953359;29;20039;-78
2021/12/18 07:11:59;;;;;;;6.63;1.92;;;;;;;4.29;100.00;103727.31;4938151;29;20398;-76
2021/12/18 07:14:25;;;;;;;7.32;1.92;;;;;;;4.56;100.00;103757.47;4937050;29;20020;-76
2021/12/18 07:16:55;;;;;;;8.05;2.03;;;;;;;4.44;100.00;103791.69;4940473;29;20038;-75
2021/12/18 07:19:21;;;;;;;9.20;3.10;;;;;;;4.09;100.00;103754.63;4941889;29;20034;-77
2021/12/18 07:21:47;;;;;;;11.27;2.67;;;;;;;4.22;100.00;103794.53;4940715;29;20083;-77
2021/12/18 07:24:33;;;;;;;10.05;2.45;;;;;;;4.25;100.00;103765.75;4945583;29;20066;-76
2021/12/18 07:27:02;;;;;;;9.50;2.83;;;;;;;4.38;100.00;103783.03;4948582;29;20055;-78
2021/12/18 07:29:34;;;;;;;12.70;2.17;;;;;;;3.74;100.00;103755.88;4949307;29;20027;-77
2021/12/18 07:32:00;;;;;;;7.45;2.20;;;;;;;4.01;100.00;103760.81;4949435;29;20038;-77
2021/12/18 07:34:32;;;;;;;6.72;1.90;;;;;;;4.21;100.00;103745.75;4945115;29;20027;-76
2021/12/18 07:37:12;;;;;;;7.07;1.73;;;;;;;4.31;100.00;103777.88;4950467;29;20019;-77
2021/12/18 07:39:37;;;;;;;5.20;1.48;;;;;;;4.34;100.00;103790.94;4932911;29;20031;-78
2021/12/18 07:42:11;;;;;;;9.65;2.10;;;;;;;3.86;100.00;103790.59;4964791;29;20036;-77
2021/12/18 07:44:50;;;;;;;7.32;2.10;;;;;;;3.83;100.00;103777.56;4951046;29;20027;-76
2021/12/18 07:47:21;;;;;;;8.88;2.17;;;;;;;4.48;100.00;103789.00;4945295;29;20028;-77
2021/12/18 07:49:48;;;;;;;6.85;1.90;;;;;;;4.00;100.00;103782.59;4952257;29;20027;-78
2021/12/18 07:52:18;;;;;;;10.18;2.17;;;;;;;4.51;100.00;103786.31;4951651;29;20155;-76
2021/12/18 07:54:44;;;;;;;8.43;2.33;;;;;;;4.32;100.00;103772.63;4952741;29;20028;-76
2021/12/18 07:57:13;;;;;;;8.65;2.20;;;;;;;4.43;100.00;103764.66;4953804;29;20027;-79
2021/12/18 07:59:39;;;;;;;7.43;2.17;;;;;;;4.17;100.00;103767.59;4961844;23;20141;-77
2021/12/18 08:02:10;;;;;;;6.93;2.25;;;;;;;4.39;100.00;103758.59;4910160;29;20036;-77
2021/12/18 08:04:38;;;;;;;8.10;2.40;;;;;;;4.41;100.00;103726.31;4918851;29;20142;-78
2021/12/18 08:07:04;;;;;;;7.00;2.10;;;;;;;4.62;100.00;103757.41;4929150;29;20032;-77
2021/12/18 08:09:30;;;;;;;6.97;1.75;;;;;;;4.34;100.00;103763.00;4932776;29;20028;-78
2021/12/18 08:11:56;;;;;;;9.57;2.25;;;;;;;4.43;100.00;103780.34;4914189;29;20072;-77
2021/12/18 08:14:22;;;;;;;6.70;1.92;;;;;;;4.34;100.00;103752.56;4930846;29;20024;-78
2021/12/18 08:16:48;;;;;;;6.93;1.80;;;;;;;4.18;100.00;103714.41;4931296;29;20032;-78
2021/12/18 08:19:15;;;;;;;5.97;1.45;;;;;;;4.34;100.00;103754.31;4924329;29;20028;-75
2021/12/18 08:21:47;;;;;;;5.28;1.60;;;;;;;4.60;100.00;103772.25;4908061;29;20032;-78
2021/12/18 08:24:21;;;;;;;6.20;1.85;;;;;;;4.53;100.00;103778.47;4913869;29;20035;-79
2021/12/18 08:26:46;;;;;;;6.75;2.00;;;;;;;4.21;100.00;103714.34;4898414;29;20119;-78
2021/12/18 08:29:12;;;;;;;6.72;1.90;;;;;;;4.39;100.00;103786.50;4941998;23;20056;-79
2021/12/18 08:31:41;;;;;;;7.82;1.95;;;;;;;4.47;100.00;103794.25;4912558;29;20043;-76
2021/12/18 08:34:13;;;;;;;6.47;1.65;;;;;;;4.23;100.00;103767.53;4948456;29;20074;-77
2021/12/18 08:36:39;;;;;;;8.98;1.80;;;;;;;4.60;100.00;103775.72;4947457;29;20051;-77
2021/12/18 08:39:17;;;;;;;8.00;1.85;;;;;;;4.32;100.00;103743.84;4947598;29;20078;-76
2021/12/18 08:41:45;;;;;;;6.13;1.58;;;;;;;4.30;100.00;103761.31;4924835;29;20147;-76
2021/12/18 08:44:12;;;;;;;5.78;1.70;;;;;;;4.67;100.00;103788.75;4924538;29;20135;-76
2021/12/18 08:46:42;;;;;;;6.53;1.77;;;;;;;4.34;100.00;103762.16;4922789;23;20048;-77
2021/12/18 08:49:17;;;;;;;6.28;1.48;;;;;;;4.57;100.00;103769.69;4926303;29;20043;-79
2021/12/18 08:51:43;;;;;;;6.15;1.90;;;;;;;4.83;100.00;103790.25;4926251;29;20063;-77
2021/12/18 08:54:09;;;;;;;7.93;1.95;;;;;;;4.81;100.00;103795.53;4908702;29;20052;-79
2021/12/18 08:56:35;;;;;;;9.05;2.97;;;;;;;4.85;100.00;103800.69;4907418;29;20033;-78
2021/12/18 08:59:01;;;;;;;9.65;2.33;;;;;;;4.41;100.00;103731.53;4902434;29;20055;-75
2021/12/18 09:01:28;;;;;;;7.38;2.20;;;;;;;4.64;100.00;103746.91;4921176;29;20032;-74
2021/12/18 09:03:54;;;;;;;6.53;1.98;;;;;;;4.65;100.00;103751.25;4901938;29;20443;-76
2021/12/18 09:06:23;;;;;;;11.07;4.38;;;;;;;4.70;100.00;103794.81;4904350;29;20024;-74
2021/12/18 09:08:50;;;;;;;9.10;2.17;;;;;;;4.54;100.00;103728.72;4873402;29;20032;-74
2021/12/18 09:11:18;;;;;;;7.90;2.33;;;;;;;5.13;100.00;103790.66;4899157;29;20067;-75
2021/12/18 09:13:44;;;;;;;7.78;2.13;;;;;;;4.85;100.00;103767.53;4899887;29;20032;-77
2021/12/18 09:16:13;;;;;;;10.80;2.50;;;;;;;4.61;100.00;103737.34;4919926;29;20395;-76
2021/12/18 09:18:41;;;;;;;7.22;2.47;;;;;;;5.02;100.00;103781.22;4903827;29;20028;-76
2021/12/18 09:21:06;;;;;;;9.70;2.70;;;;;;;5.09;100.00;103784.63;4915780;29;20466;-75
2021/12/18 09:23:32;;;;;;;7.85;2.53;;;;;;;5.20;100.00;103787.03;4918385;29;20067;-78
2021/12/18 09:25:58;;;;;;;9.45;2.50;;;;;;;5.13;100.00;103790.66;4902797;29;20036;-78
2021/12/18 09:28:24;;;;;;;10.70;3.30;;;;;;;4.59;100.00;103739.13;4919774;29;20036;-78
2021/12/18 09:30:54;;;;;;;9.73;3.17;;;;;;;5.09;100.00;103768.91;4892474;29;20028;-78
2021/12/18 09:33:20;;;;;;;10.32;2.70;;;;;;;4.88;100.00;103757.00;4879486;29;20036;-78
2021/12/18 09:35:46;;;;;;;10.88;3.00;;;;;;;4.92;100.00;103731.63;4896211;29;20036;-77
2021/12/18 09:38:12;;;;;;;7.20;2.25;;;;;;;4.91;100.00;103754.34;4928930;29;20093;-76
2021/12/18 09:40:39;;;;;;;7.10;2.17;;;;;;;4.99;100.00;103772.53;4891572;29;20056;-79
2021/12/18 09:43:05;;;;;;;8.10;2.15;;;;;;;4.88;100.00;103749.13;4902910;29;20036;-77
2021/12/18 09:45:31;;;;;;;15.38;5.20;;;;;;;5.12;100.00;103752.25;4885820;29;20032;-75
2021/12/18 09:47:59;;;;;;;7.45;2.13;;;;;;;4.91;100.00;103743.88;4888407;29;20076;-76
2021/12/18 09:50:27;;;;;;;8.07;2.10;;;;;;;4.55;100.00;103725.22;4899687;29;20123;-75
2021/12/18 09:52:58;;;;;;;9.45;2.28;;;;;;;5.16;100.00;103781.00;4905975;29;20111;-75
2021/12/18 09:55:23;;;;;;;7.85;2.50;;;;;;;4.38;100.00;103729.81;4906485;29;20028;-76
2021/12/18 09:57:49;;;;;;;13.18;4.07;;;;;;;4.29;100.00;103714.25;4900973;29;20028;-76
2021/12/18 10:00:21;;;;;;;7.07;2.30;;;;;;;4.88;100.00;103749.13;4918682;29;20039;-75
2021/12/18 10:02:46;;;;;;;8.07;2.80;;;;;;;5.11;100.00;103795.94;4899458;29;20129;-75
2021/12/18 10:05:33;;;;;;;6.30;1.80;;;;;;;5.16;100.00;103778.38;4899417;29;20028;-76
2021/12/18 10:08:10;;;;;;;7.20;2.15;;;;;;;4.99;100.00;103789.09;4920225;29;20059;-75
2021/12/18 10:10:37;;;;;;;6.00;1.88;;;;;;;4.85;100.00;103735.25;4894240;29;20041;-76
2021/12/18 10:13:07;;;;;;;7.15;2.05;;;;;;;4.62;100.00;103705.03;4913102;29;20052;-75
2021/12/18 10:15:34;;;;;;;13.13;4.65;;;;;;;5.15;100.00;103754.81;4886560;29;20149;-76
2021/12/18 10:18:09;;;;;;;7.18;2.50;;;;;;;4.99;100.00;103713.16;4909440;29;20068;-75
2021/12/18 10:20:35;;;;;;;;;;;;;;;5.45;100.00;103769.16;4888627;29;20028;-75
2021/12/18 10:23:04;;;;;;;7.93;2.35;;;;;;;5.09;100.00;103734.84;4886983;29;19926;-74
2021/12/18 10:25:37;;;;;;;6.70;2.30;;;;;;;5.25;100.00;103768.66;4900607;29;20032;-75
2021/12/18 10:30:58;;;;;;;6.22;1.90;;;;;;;5.27;100.00;103706.56;4915164;29;20040;-74
2021/12/18 10:33:28;;;;;;;6.30;2.00;;;;;;;5.16;100.00;103707.66;4899821;29;20044;-73
2021/12/18 10:35:57;;;;;;;7.88;2.85;;;;;;;5.46;100.00;103754.31;4914889;29;20103;-75
2021/12/18 10:38:38;;;;;;;6.18;1.88;;;;;;;5.72;100.00;103761.66;4917628;29;20372;-74
2021/12/18 10:41:29;;;;;;;5.93;1.77;;;;;;;5.54;100.00;103762.88;4901947;29;20028;-77
2021/12/18 10:44:08;;;;;;;5.90;1.80;;;;;;;5.81;100.00;103753.63;4892349;29;20120;-72
2021/12/18 10:46:44;;;;;;;5.82;1.77;;;;;;;5.53;100.00;103724.47;4900488;29;20045;-77
2021/12/18 10:49:13;;;;;;;4.90;1.52;;;;;;;5.44;100.00;103755.19;4894963;29;20141;-76
2021/12/18 10:51:41;;;;;;;5.07;1.60;;;;;;;5.52;100.00;103723.59;4894256;29;20032;-74
2021/12/18 10:54:19;;;;;;;5.40;1.70;;;;;;;5.54;100.00;103768.13;4895352;29;20436;-75
2021/12/18 10:56:47;;;;;;;6.13;1.75;;;;;;;4.95;100.00;103763.00;4871165;29;20088;-74
2021/12/18 10:59:31;;;;;;;4.70;1.35;;;;;;;5.47;100.00;103756.03;4876473;29;20043;-74
2021/12/18 11:02:02;;;;;;;6.35;1.85;;;;;;;5.48;100.00;103761.25;4887538;29;20080;-75
2021/12/18 11:04:34;;;;;;;6.18;1.83;;;;;;;5.81;100.00;103753.63;4898651;29;20067;-77
2021/12/18 11:07:19;;;;;;;7.25;2.08;;;;;;;5.29;100.00;103754.59;4896079;29;20032;-73
2021/12/18 11:09:59;;;;;;;11.30;4.32;;;;;;;5.56;100.00;103742.75;4882722;29;20025;-72
2021/12/18 11:15:13;;;;;;;5.40;1.70;;;;;;;5.68;100.00;103754.75;4918897;24;20048;-72
2021/12/18 11:17:40;;;;;;;5.85;2.03;;;;;;;5.80;100.00;103733.56;4903587;29;20116;-72
2021/12/18 11:20:06;;;;;;;6.82;2.38;;;;;;;5.27;100.00;103694.38;4906087;29;20048;-72
2021/12/18 11:22:32;;;;;;;11.48;3.95;;;;;;;5.27;100.00;103748.50;4904986;29;20100;-72
2021/12/18 11:25:05;;;;;;;6.13;2.10;;;;;;;5.74;100.00;103700.44;4888964;29;20098;-72
2021/12/18 11:27:34;;;;;;;7.53;1.80;;;;;;;5.84;100.00;103741.34;4929961;29;20083;-77
2021/12/18 11:30:13;;;;;;;6.30;2.10;;;;;;;5.54;100.00;103668.50;4893594;29;20404;-74
2021/12/18 11:32:42;;;;;;;6.55;2.33;;;;;;;5.74;100.00;103699.56;4898713;29;20032;-75
2021/12/18 11:35:15;;;;;;;5.03;1.88;;;;;;;5.90;100.00;103731.59;4918577;29;20040;-77
2021/12/18 11:37:40;;;;;;;6.80;2.00;;;;;;;6.34;100.00;103732.47;4900503;29;20029;-74
2021/12/18 11:40:11;;;;;;;7.80;2.35;;;;;;;6.47;100.00;103721.66;4911576;29;20035;-77
2021/12/18 11:42:36;;;;;;;6.70;1.95;;;;;;;6.50;100.00;103722.50;4884522;29;20063;-75
2021/12/18 11:45:07;;;;;;;7.32;2.67;;;;;;;6.62;100.00;103707.28;4885915;29;20029;-75
2021/12/18 11:47:56;;;;;;;11.25;3.42;;;;;;;6.62;100.00;103703.81;4917415;29;20084;-75
2021/12/18 11:50:38;;;;;;;10.45;3.33;;;;;;;6.94;100.00;103695.13;4903207;29;20036;-75
2021/12/18 11:53:08;;;;;;;12.73;3.55;;;;;;;6.66;100.00;103666.09;4920964;29;20031;-75
2021/12/18 11:55:57;;;;;;;11.63;4.43;;;;;;;6.47;100.00;103640.28;4913351;29;20024;-75
2021/12/18 11:58:29;;;;;;;16.02;5.30;;;;;;;6.87;100.00;103697.06;4894570;29;20044;-73
2021/12/18 12:01:16;;;;;;;19.77;6.25;;;;;;;6.85;100.00;103706.72;4932017;29;20036;-75
2021/12/18 12:03:55;;;;;;;19.85;6.97;;;;;;;6.68;100.00;103701.06;4915124;29;20084;-75
2021/12/18 12:06:31;;;;;;;21.23;7.57;;;;;;;6.59;100.00;103707.38;4912521;29;20037;-74
2021/12/18 12:09:34;;;;;;;24.88;8.73;;;;;;;6.72;100.00;103699.19;4910529;29;20106;-76
2021/12/18 12:12:12;;;;;;;34.38;11.98;;;;;;;6.79;100.00;103695.50;4906148;29;20034;-75
2021/12/18 12:14:44;;;;;;;35.45;12.68;;;;;;;6.63;100.00;103693.28;4920436;29;20052;-76
2021/12/18 12:17:27;;;;;;;40.78;13.45;;;;;;;6.58;100.00;103700.38;4900989;29;20048;-76
2021/12/18 12:19:59;;;;;;;30.95;12.18;;;;;;;6.79;100.00;103696.41;4882652;29;20041;-76
2021/12/18 12:22:37;;;;;;;26.42;9.07;;;;;;;6.48;100.00;103625.38;4889347;29;20059;-75
2021/12/18 12:25:08;;;;;;;23.88;8.65;;;;;;;6.56;100.00;103661.94;4901681;29;20035;-76
2021/12/18 12:27:43;;;;;;;25.38;8.65;;;;;;;6.08;100.00;103639.44;4889133;29;20035;-76
2021/12/18 12:30:40;;;;;;;26.02;9.43;;;;;;;6.51;100.00;103679.56;4904840;29;20087;-75